Atomic City, Idaho
Current Conditions -  °F | °C
As of 2:53 PM on Tuesday 21 Oct 2014 (Local Time) from KIDA Reporting Station
Broken Clouds Broken Clouds  
Wind Chill: 11°   Ceiling: 5500
Heat Index: 11°   Visibility: 10mi
Dew Point:   Wind: 22mph
Humidity: 50%   Direction: 210°SSW
Pressure: 30"   Gusts: 33mph
Location:  43.44°N, 112.81°W
Report Text: KIDA 212053Z 21019G29KT 10SM BKN055 11/01 A3000 RMK AO2 PK WND 21034/2000 SLP142 T01060006 53002
Loading
Personal Weather Stations






























Interactive Weather Map
Tropical Storm Tracking
New forecast layout! Learn more

10-Day Weather Forecast

Advertisements
Track Severe Weather on mobile